createdAt,value
2022-08-10T00:01:54.725Z,2.55
2022-08-10T00:04:33.086Z,2.53
2022-08-10T00:07:00.612Z,2.13
2022-08-10T00:09:27.857Z,2.13
2022-08-10T00:11:55.107Z,2.25
2022-08-10T00:14:22.661Z,2.30
2022-08-10T00:16:50.095Z,2.05
2022-08-10T00:19:18.249Z,3.60
2022-08-10T00:21:47.019Z,2.60
2022-08-10T00:24:14.624Z,2.10
2022-08-10T00:27:58.838Z,2.17
2022-08-10T00:29:29.833Z,2.42
2022-08-10T00:31:59.205Z,2.85
2022-08-10T00:34:35.332Z,2.50
2022-08-10T00:37:08.573Z,2.28
2022-08-10T00:39:39.337Z,2.80
2022-08-10T00:42:09.462Z,2.58
2022-08-10T00:44:42.106Z,2.72
2022-08-10T00:47:15.376Z,2.70
2022-08-10T00:49:58.047Z,2.70
2022-08-10T00:52:29.193Z,2.63
2022-08-10T00:54:57.092Z,2.75
2022-08-10T00:57:25.963Z,2.58
2022-08-10T00:59:58.915Z,2.45
2022-08-10T01:02:33.049Z,2.58
2022-08-10T01:05:11.803Z,2.50
2022-08-10T01:08:09.730Z,3.03
2022-08-10T01:10:59.493Z,2.92
2022-08-10T01:13:42.624Z,2.45
2022-08-10T01:16:39.078Z,2.97
2022-08-10T01:19:37.100Z,2.95
2022-08-10T01:26:12.128Z,3.60
2022-08-10T01:29:17.854Z,3.03
2022-08-10T01:31:51.865Z,3.38
2022-08-10T01:37:16.605Z,3.67
2022-08-10T01:39:53.507Z,3.42
2022-08-10T01:42:30.421Z,2.92
2022-08-10T01:45:01.235Z,3.75
2022-08-10T01:47:52.731Z,2.88
2022-08-10T01:50:53.274Z,3.13
2022-08-10T01:53:42.282Z,3.17
2022-08-10T01:56:16.086Z,3.10
2022-08-10T01:58:46.925Z,3.20
2022-08-10T02:01:59.667Z,2.45
2022-08-10T02:04:29.813Z,2.13
2022-08-10T02:07:04.142Z,2.33
2022-08-10T02:09:38.542Z,2.55
2022-08-10T02:12:16.136Z,2.78
2022-08-10T02:14:51.668Z,3.30
2022-08-10T02:17:57.988Z,3.17
2022-08-10T02:20:21.246Z,2.67
2022-08-10T02:22:57.059Z,2.88
2022-08-10T02:25:40.519Z,3.05
2022-08-10T02:28:30.062Z,3.40
2022-08-10T02:31:06.189Z,2.95
2022-08-10T02:33:57.504Z,3.35
2022-08-10T02:36:31.847Z,3.60
2022-08-10T02:39:05.192Z,2.92
2022-08-10T02:45:23.150Z,2.75
2022-08-10T02:45:24.590Z,3.65
2022-08-10T02:47:57.726Z,2.63
2022-08-10T02:50:31.129Z,2.78
2022-08-10T02:53:56.331Z,3.22
2022-08-10T02:57:00.456Z,3.10
2022-08-10T02:59:39.708Z,3.13
2022-08-10T03:02:11.522Z,3.40
2022-08-10T03:04:55.034Z,3.70
2022-08-10T03:07:42.819Z,3.42
2022-08-10T03:10:18.980Z,3.40
2022-08-10T03:12:51.471Z,3.85
2022-08-10T03:15:21.174Z,3.30
2022-08-10T03:17:57.682Z,3.67
2022-08-10T03:20:46.706Z,3.35
2022-08-10T03:23:35.722Z,4.25
2022-08-10T03:26:03.205Z,2.70
2022-08-10T03:28:52.860Z,2.90
2022-08-10T03:31:20.785Z,3.55
2022-08-10T03:33:49.401Z,4.30
2022-08-10T03:36:42.400Z,2.67
2022-08-10T03:39:12.561Z,3.92
2022-08-10T03:41:53.497Z,3.78
2022-08-10T03:44:25.169Z,3.33
2022-08-10T03:46:53.815Z,3.17
2022-08-10T03:49:23.093Z,3.15
2022-08-10T03:51:51.870Z,2.70
2022-08-10T03:54:19.966Z,3.85
2022-08-10T03:56:48.368Z,3.70
2022-08-10T03:59:17.472Z,4.00
2022-08-10T04:02:46.664Z,4.00
2022-08-10T04:04:35.717Z,4.38
2022-08-10T04:07:05.313Z,4.15
2022-08-10T04:09:55.496Z,3.78
2022-08-10T04:12:27.257Z,3.38
2022-08-10T04:14:55.698Z,2.45
2022-08-10T04:17:59.381Z,3.00
2022-08-10T04:21:10.153Z,2.90
2022-08-10T04:23:53.299Z,4.03
2022-08-10T04:37:47.301Z,5.10
2022-08-10T04:40:36.604Z,5.13
2022-08-10T04:43:31.616Z,5.07
2022-08-10T04:46:58.012Z,5.95
2022-08-10T04:52:29.734Z,4.90
2022-08-10T04:55:19.019Z,5.35
2022-08-10T04:57:47.929Z,4.43
2022-08-10T05:00:19.153Z,6.13
2022-08-10T05:02:47.155Z,5.63
2022-08-10T05:05:14.408Z,4.85
2022-08-10T05:07:53.967Z,4.38
2022-08-10T05:10:24.379Z,5.38
2022-08-10T05:12:51.878Z,4.60
2022-08-10T05:15:19.598Z,4.00
2022-08-10T05:18:08.326Z,4.60
2022-08-10T05:20:34.461Z,4.22
2022-08-10T05:23:01.659Z,4.22
2022-08-10T05:28:59.672Z,4.80
2022-08-10T05:31:33.022Z,5.20
2022-08-10T05:34:06.021Z,5.53
2022-08-10T05:37:00.684Z,5.68
2022-08-10T05:40:05.804Z,5.38
2022-08-10T05:42:54.802Z,6.20
2022-08-10T05:46:18.594Z,5.22
2022-08-10T05:48:59.033Z,5.72
2022-08-10T05:51:35.325Z,5.43
2022-08-10T05:54:15.599Z,4.45
2022-08-10T05:56:55.937Z,7.90
2022-08-10T06:00:29.334Z,5.22
2022-08-10T06:02:48.394Z,4.60
2022-08-10T06:06:18.979Z,4.10
2022-08-10T06:09:00.000Z,4.18
2022-08-10T06:16:04.680Z,3.70
2022-08-10T06:18:32.781Z,3.65
2022-08-10T06:24:33.991Z,3.47
2022-08-10T06:27:01.574Z,2.65
2022-08-10T06:29:43.453Z,2.60
2022-08-10T06:32:13.447Z,2.72
2022-08-10T06:34:47.275Z,2.78
2022-08-10T06:40:56.083Z,2.45
2022-08-10T06:43:29.602Z,2.58
2022-08-10T06:46:07.317Z,2.90
2022-08-10T06:48:49.384Z,2.65
2022-08-10T06:51:22.237Z,2.22
2022-08-10T06:54:58.374Z,2.45
2022-08-10T06:57:30.941Z,2.55
2022-08-10T07:00:01.107Z,2.85
2022-08-10T07:03:08.297Z,2.80
2022-08-10T07:05:45.915Z,4.03
2022-08-10T07:08:21.737Z,2.88
2022-08-10T07:10:57.296Z,3.25
2022-08-10T07:14:14.670Z,3.55
2022-08-10T07:16:13.904Z,3.10
2022-08-10T07:18:46.586Z,2.38
2022-08-10T07:21:33.210Z,2.78
2022-08-10T07:24:33.401Z,3.05
2022-08-10T07:27:12.148Z,2.78
2022-08-10T07:33:31.719Z,2.58
2022-08-10T07:35:59.361Z,2.30
2022-08-10T07:38:29.427Z,2.53
2022-08-10T07:41:00.885Z,2.97
2022-08-10T07:43:31.642Z,1.27
2022-08-10T07:46:22.209Z,1.52
2022-08-10T07:53:01.668Z,2.03
2022-08-10T07:56:21.266Z,1.30
2022-08-10T08:02:58.189Z,2.00
2022-08-10T08:06:02.832Z,1.40
2022-08-10T08:08:28.931Z,1.27
2022-08-10T08:11:26.262Z,2.05
2022-08-10T08:13:56.104Z,1.63
2022-08-10T08:16:30.176Z,1.83
2022-08-10T08:24:06.839Z,2.00
2022-08-10T08:24:43.816Z,1.20
2022-08-10T08:27:15.563Z,1.67
2022-08-10T08:29:45.855Z,1.42
2022-08-10T08:32:17.181Z,1.45
2022-08-10T08:34:57.663Z,1.40
2022-08-10T08:38:33.504Z,1.38
2022-08-10T08:42:25.332Z,1.20
2022-08-10T08:45:32.001Z,1.38
2022-08-10T08:48:29.370Z,1.17
2022-08-10T08:52:07.005Z,1.65
2022-08-10T08:55:00.841Z,1.23
2022-08-10T08:57:52.002Z,1.42
2022-08-10T09:00:28.495Z,1.27
2022-08-10T09:06:40.794Z,1.00
2022-08-10T09:09:54.800Z,1.25
2022-08-10T09:13:02.009Z,1.80
2022-08-10T09:15:57.481Z,1.55
2022-08-10T09:19:36.648Z,1.52
2022-08-10T09:22:37.686Z,2.00
2022-08-10T09:25:31.686Z,1.30
2022-08-10T09:29:12.028Z,1.20
2022-08-10T09:35:39.897Z,1.50
2022-08-10T09:36:24.401Z,1.83
2022-08-10T09:38:55.030Z,1.25
2022-08-10T09:42:03.113Z,1.27
2022-08-10T09:44:58.185Z,1.33
2022-08-10T09:48:15.236Z,1.40
2022-08-10T09:54:52.782Z,1.60
2022-08-10T09:58:04.290Z,1.42
2022-08-10T10:00:39.006Z,1.85
2022-08-10T10:04:13.802Z,1.30
2022-08-10T10:06:59.128Z,2.58
2022-08-10T10:09:55.212Z,1.02
2022-08-10T10:15:45.933Z,1.23
2022-08-10T10:18:57.423Z,0.90
2022-08-10T10:21:54.497Z,1.00
2022-08-10T10:24:37.600Z,0.90
2022-08-10T10:27:25.550Z,0.90
2022-08-10T10:30:18.755Z,1.08
2022-08-10T10:33:14.427Z,1.23
2022-08-10T10:38:19.087Z,1.55
2022-08-10T10:40:55.805Z,1.13
2022-08-10T10:44:04.166Z,1.10
2022-08-10T10:47:05.871Z,0.80
2022-08-10T10:49:52.015Z,1.20
2022-08-10T10:52:28.426Z,1.13
2022-08-10T10:55:20.939Z,1.17
2022-08-10T10:58:05.778Z,1.20
2022-08-10T11:01:10.775Z,0.60
2022-08-10T11:04:01.911Z,2.92
2022-08-10T11:06:48.210Z,1.00
2022-08-10T11:10:07.884Z,1.00
2022-08-10T11:12:34.388Z,1.05
2022-08-10T11:19:14.056Z,1.00
2022-08-10T11:27:21.511Z,1.02
2022-08-10T11:29:14.087Z,1.05
2022-08-10T11:35:46.955Z,1.10
2022-08-10T11:42:31.600Z,1.10
2022-08-10T11:45:51.486Z,0.80
2022-08-10T11:48:54.580Z,1.23
2022-08-10T11:51:44.520Z,1.20
2022-08-10T11:54:54.902Z,1.30
2022-08-10T11:57:26.079Z,1.10
2022-08-10T12:00:29.377Z,0.93
2022-08-10T12:03:12.872Z,1.27
2022-08-10T12:05:54.739Z,0.88
2022-08-10T12:10:03.506Z,0.90
2022-08-10T12:11:25.597Z,1.13
2022-08-10T12:14:23.058Z,0.95
2022-08-10T12:17:07.186Z,1.00
2022-08-10T12:19:59.363Z,1.15
2022-08-10T12:22:34.539Z,1.38
2022-08-10T12:25:09.747Z,2.92
2022-08-10T12:27:50.867Z,1.40
2022-08-10T12:30:22.377Z,1.63
2022-08-10T12:33:01.217Z,1.30
2022-08-10T12:36:17.483Z,1.00
2022-08-10T12:41:51.739Z,1.00
2022-08-10T12:44:41.223Z,2.30
2022-08-10T12:47:25.024Z,0.90
2022-08-10T12:50:17.203Z,0.90
2022-08-10T12:52:53.663Z,0.88
2022-08-10T12:55:22.313Z,1.33
2022-08-10T12:57:54.609Z,1.35
2022-08-10T13:00:31.840Z,1.48
2022-08-10T13:03:02.363Z,0.85
2022-08-10T13:05:54.701Z,0.90
2022-08-10T13:08:42.003Z,1.10
2022-08-10T13:12:33.901Z,0.75
2022-08-10T13:14:12.465Z,0.98
2022-08-10T13:16:42.951Z,0.98
2022-08-10T13:19:11.260Z,1.00
2022-08-10T13:21:40.421Z,0.85
2022-08-10T13:24:15.179Z,1.23
2022-08-10T13:27:25.912Z,2.10
2022-08-10T13:29:51.694Z,0.75
2022-08-10T13:32:27.564Z,0.90
2022-08-10T13:34:59.433Z,0.90
2022-08-10T13:37:28.547Z,1.08
2022-08-10T13:40:01.124Z,1.70
2022-08-10T13:42:37.097Z,1.00
2022-08-10T13:45:20.726Z,0.80
2022-08-10T13:47:52.905Z,1.05
2022-08-10T13:50:35.054Z,1.55
2022-08-10T13:53:13.862Z,1.08
2022-08-10T13:55:55.356Z,0.80
2022-08-10T13:58:36.456Z,1.00
2022-08-10T14:01:14.325Z,0.93
2022-08-10T14:03:44.554Z,0.80
2022-08-10T14:06:17.616Z,1.02
2022-08-10T14:09:05.289Z,0.68
2022-08-10T14:11:35.452Z,0.70
2022-08-10T14:14:05.787Z,0.90
2022-08-10T14:16:35.068Z,0.80
2022-08-10T14:19:10.457Z,0.98
2022-08-10T14:21:42.134Z,1.00
2022-08-10T14:24:34.956Z,0.88
2022-08-10T14:27:15.777Z,0.70
2022-08-10T14:30:03.149Z,0.85
2022-08-10T14:32:32.480Z,1.10
2022-08-10T14:36:20.246Z,1.30
2022-08-10T14:38:14.396Z,0.70
2022-08-10T14:40:44.939Z,0.85
2022-08-10T14:43:28.774Z,1.23
2022-08-10T14:46:07.617Z,1.27
2022-08-10T14:48:41.169Z,0.88
2022-08-10T14:51:20.049Z,1.13
2022-08-10T14:54:06.575Z,1.30
2022-08-10T14:56:37.566Z,1.27
2022-08-10T14:59:07.744Z,0.65
2022-08-10T15:02:01.014Z,0.80
2022-08-10T15:04:37.373Z,1.77
2022-08-10T15:07:20.671Z,0.80
2022-08-10T15:10:01.394Z,1.08
2022-08-10T15:12:42.124Z,1.10
2022-08-10T15:15:16.381Z,1.13
2022-08-10T15:17:52.799Z,0.65
2022-08-10T15:20:23.075Z,1.08
2022-08-10T15:23:04.335Z,1.10
2022-08-10T15:25:36.442Z,0.80
2022-08-10T15:28:08.331Z,0.70
2022-08-10T15:30:43.890Z,1.13
2022-08-10T15:34:02.905Z,1.30
2022-08-10T15:40:21.378Z,0.80
2022-08-10T15:42:24.676Z,0.80
2022-08-10T15:45:01.612Z,1.45
2022-08-10T15:47:45.371Z,0.70
2022-08-10T15:50:23.852Z,0.93
2022-08-10T15:53:00.879Z,0.68
2022-08-10T15:55:41.728Z,1.20
2022-08-10T15:58:20.057Z,1.20
2022-08-10T16:02:03.871Z,0.77
2022-08-10T16:04:16.654Z,0.75
2022-08-10T16:06:56.135Z,1.00
2022-08-10T16:10:22.196Z,0.85
2022-08-10T16:12:29.059Z,0.73
2022-08-10T16:15:00.166Z,0.90
2022-08-10T16:17:28.497Z,0.75
2022-08-10T16:19:59.342Z,1.20
2022-08-10T16:22:34.216Z,0.80
2022-08-10T16:25:12.540Z,0.88
2022-08-10T16:27:40.913Z,1.23
2022-08-10T16:30:08.442Z,0.80
2022-08-10T16:32:40.337Z,0.90
2022-08-10T16:35:16.020Z,0.70
2022-08-10T16:37:58.667Z,1.10
2022-08-10T16:40:29.707Z,0.88
2022-08-10T16:43:00.204Z,0.90
2022-08-10T16:45:41.555Z,0.73
2022-08-10T16:48:10.572Z,0.65
2022-08-10T16:50:42.553Z,0.73
2022-08-10T16:53:25.018Z,1.25
2022-08-10T16:55:58.059Z,1.20
2022-08-10T16:58:33.558Z,0.93
2022-08-10T17:01:08.398Z,0.93
2022-08-10T17:04:07.522Z,0.80
2022-08-10T17:06:42.741Z,1.02
2022-08-10T17:09:17.478Z,2.10
2022-08-10T17:11:48.622Z,1.20
2022-08-10T17:14:16.634Z,1.20
2022-08-10T17:16:57.326Z,1.48
2022-08-10T17:19:30.091Z,1.52
2022-08-10T17:21:59.810Z,1.40
2022-08-10T17:24:37.459Z,0.80
2022-08-10T17:28:05.030Z,0.80
2022-08-10T17:30:04.733Z,1.90
2022-08-10T17:32:43.831Z,0.90
2022-08-10T17:35:14.456Z,1.27
2022-08-10T17:37:49.042Z,1.48
2022-08-10T17:40:21.763Z,0.95
2022-08-10T17:42:55.850Z,0.68
2022-08-10T17:45:48.399Z,1.75
2022-08-10T17:48:19.296Z,1.20
2022-08-10T17:50:52.141Z,1.00
2022-08-10T17:53:24.898Z,1.55
2022-08-10T17:59:01.102Z,1.40
2022-08-10T18:01:40.653Z,1.30
2022-08-10T18:04:17.882Z,1.15
2022-08-10T18:06:52.612Z,1.23
2022-08-10T18:09:45.870Z,0.80
2022-08-10T18:12:18.483Z,1.25
2022-08-10T18:14:54.590Z,0.95
2022-08-10T18:17:26.922Z,1.35
2022-08-10T18:20:05.923Z,1.20
2022-08-10T18:22:36.742Z,1.00
2022-08-10T18:25:09.003Z,1.00
2022-08-10T18:28:01.673Z,1.50
2022-08-10T18:30:30.345Z,1.05
2022-08-10T18:33:04.846Z,1.10
2022-08-10T18:35:34.766Z,1.80
2022-08-10T18:38:03.319Z,1.88
2022-08-10T18:40:35.953Z,1.80
2022-08-10T18:44:07.849Z,1.30
2022-08-10T18:45:58.335Z,1.48
2022-08-10T18:48:48.981Z,1.40
2022-08-10T18:51:24.399Z,1.50
2022-08-10T18:53:57.867Z,1.40
2022-08-10T18:56:34.316Z,1.70
2022-08-10T18:59:31.688Z,1.55
2022-08-10T19:02:21.194Z,2.00
2022-08-10T19:05:30.879Z,1.38
2022-08-10T19:08:14.125Z,1.60
2022-08-10T19:11:01.494Z,1.35
2022-08-10T19:13:41.122Z,1.80
2022-08-10T19:16:19.780Z,1.70
2022-08-10T19:19:05.578Z,1.35
2022-08-10T19:22:16.927Z,1.42
2022-08-10T19:25:06.321Z,2.00
2022-08-10T19:28:06.800Z,1.60
2022-08-10T19:34:11.427Z,1.27
2022-08-10T19:36:52.918Z,1.70
2022-08-10T19:39:52.247Z,1.42
2022-08-10T19:42:55.449Z,1.73
2022-08-10T19:46:00.697Z,1.17
2022-08-10T19:48:28.545Z,1.23
2022-08-10T19:50:55.824Z,1.92
2022-08-10T19:54:02.448Z,1.50
2022-08-10T19:57:14.334Z,1.50
2022-08-10T20:00:28.628Z,1.52
2022-08-10T20:03:16.711Z,1.60
2022-08-10T20:06:27.691Z,1.30
2022-08-10T20:09:25.949Z,1.27
2022-08-10T20:12:07.247Z,1.20
2022-08-10T20:15:04.623Z,1.35
2022-08-10T20:21:24.183Z,1.60
2022-08-10T20:27:24.150Z,1.48
2022-08-10T20:30:13.246Z,2.00
2022-08-10T20:32:51.303Z,1.88
2022-08-10T20:35:30.742Z,1.88
2022-08-10T20:38:16.273Z,1.58
2022-08-10T20:40:47.401Z,1.60
2022-08-10T20:43:35.934Z,2.00
2022-08-10T20:46:27.805Z,1.77
2022-08-10T20:49:01.887Z,1.30
2022-08-10T20:51:58.609Z,1.80
2022-08-10T20:54:38.679Z,1.67
2022-08-10T20:57:53.618Z,1.25
2022-08-10T21:00:14.033Z,1.60
2022-08-10T21:03:07.106Z,1.55
2022-08-10T21:06:03.554Z,1.50
2022-08-10T21:09:10.151Z,1.63
2022-08-10T21:15:01.933Z,1.45
2022-08-10T21:17:47.276Z,1.88
2022-08-10T21:20:35.575Z,1.67
2022-08-10T21:26:11.779Z,1.30
2022-08-10T21:28:59.032Z,1.60
2022-08-10T21:34:35.004Z,1.38
2022-08-10T21:37:08.456Z,1.33
2022-08-10T21:39:52.816Z,1.10
2022-08-10T21:46:29.946Z,1.55
2022-08-10T21:49:24.146Z,1.60
2022-08-10T21:52:18.698Z,1.40
2022-08-10T21:55:58.310Z,1.58
2022-08-10T21:59:04.818Z,1.42
2022-08-10T22:02:13.738Z,1.58
2022-08-10T22:05:00.197Z,2.60
2022-08-10T22:07:49.591Z,1.23
2022-08-10T22:10:39.059Z,2.60
2022-08-10T22:13:27.992Z,2.47
2022-08-10T22:16:25.756Z,1.90
2022-08-10T22:19:19.367Z,1.60
2022-08-10T22:22:34.900Z,1.20
2022-08-10T22:25:38.219Z,2.83
2022-08-10T22:28:24.256Z,1.50
2022-08-10T22:31:24.650Z,1.38
2022-08-10T22:31:37.036Z,1.92
2022-08-10T22:34:58.790Z,1.52
2022-08-10T22:37:52.824Z,1.52
2022-08-10T22:40:41.382Z,1.50
2022-08-10T22:43:37.217Z,2.40
2022-08-10T22:46:31.541Z,1.45
2022-08-10T22:49:02.096Z,1.50
2022-08-10T22:51:53.455Z,1.45
2022-08-10T22:55:29.543Z,1.67
2022-08-10T22:58:15.445Z,2.42
2022-08-10T23:00:42.937Z,1.70
2022-08-10T23:03:24.399Z,2.10
2022-08-10T23:06:23.624Z,1.65
2022-08-10T23:08:59.246Z,1.77
2022-08-10T23:11:35.343Z,1.98
2022-08-10T23:14:10.311Z,1.45
2022-08-10T23:17:05.783Z,1.38
2022-08-10T23:19:47.206Z,2.05
2022-08-10T23:22:16.537Z,1.92
2022-08-10T23:24:55.347Z,1.83
2022-08-10T23:27:37.763Z,1.83
2022-08-10T23:30:17.152Z,2.03
2022-08-10T23:32:49.298Z,2.20
2022-08-10T23:36:04.413Z,2.10
2022-08-10T23:38:08.930Z,1.67
2022-08-10T23:40:36.947Z,2.10
2022-08-10T23:43:05.902Z,1.45
2022-08-10T23:45:53.536Z,2.03
2022-08-10T23:48:30.585Z,1.80
2022-08-10T23:51:01.578Z,1.73
2022-08-10T23:53:35.685Z,1.98
2022-08-10T23:56:22.459Z,2.03
2022-08-10T23:58:54.296Z,2.40
